»·PEaware :: HYDRA62 KMAF-KLBB

HYDRA62 :: KMAF-KLBB

FLIGHT INFORMATION

Flight Status: Arrived
Operator: Unknown
More flights by this operator :: More flights under this callsign
Pilot: 47th FTW Laughlin (28783)
Aircraft: BEECH AIRCRAFT T-6A TEXAN
(TEX2)
More flights by this aircraft type
Origin: KMAF Midland Intl
United States
Destination: KLBB Lubbock Intl
United States
More flights between these airports :: More routes between these airports
Route: KMAF KLBB
File this flight plan on PilotEdge
Remarks: MULTIPLE APPROACHES AT KLBB
Altitude:
(Current/Filed)
19,000ft
Speed:
(Current/Filed)
255kts
Departed: 30-Jul-20 07:28 AM
Arrived: 30-Jul-20 08:15 AM
Distance/Time
Traveled:
105nm/0:47
Distance/Time
To Go:
Arrived

Flight Plot

Page will automatically refresh every two minutes.

Flight plan parsing failed; only flown route is shown


Map Options




Map Legend


Flown Route
Filed Route
Departure Airport
Arrival Airport
Navaid (VOR, NDB)
Fix

Horizontal Profiles

Position Reports

Time Latitude Longitude Heading Altitude Ground
Speed
30-Jul-20 06:59 31.939239 -102.206796 175 2875ft 0kts
30-Jul-20 07:00 31.939239 -102.206796 175 2875ft 0kts
30-Jul-20 07:01 31.939239 -102.206796 175 2875ft 0kts
30-Jul-20 07:02 31.939239 -102.206796 175 2875ft 0kts
30-Jul-20 07:03 31.939239 -102.206796 175 2875ft 0kts
30-Jul-20 07:04 31.939239 -102.206796 175 2875ft 0kts
30-Jul-20 07:05 31.939239 -102.206796 175 2875ft 0kts
30-Jul-20 07:06 31.939239 -102.206796 175 2875ft 0kts
30-Jul-20 07:07 31.939239 -102.206796 175 2875ft 0kts
30-Jul-20 07:08 31.939239 -102.206796 175 2875ft 0kts
30-Jul-20 07:09 31.939239 -102.206796 175 2875ft 0kts
30-Jul-20 07:10 31.939239 -102.206796 175 2875ft 0kts
30-Jul-20 07:11 31.939239 -102.206796 175 2875ft 0kts
30-Jul-20 07:12 31.939239 -102.206796 175 2875ft 0kts
30-Jul-20 07:13 31.939239 -102.206796 175 2875ft 0kts
30-Jul-20 07:14 31.938909 -102.205737 117 2875ft 6kts
30-Jul-20 07:15 31.938221 -102.201462 88 2875ft 7kts
30-Jul-20 07:16 31.938229 -102.201308 86 2875ft 0kts
30-Jul-20 07:17 31.938229 -102.201308 86 2875ft 0kts
30-Jul-20 07:18 31.938496 -102.195147 49 2875ft 0kts
30-Jul-20 07:26 31.938482 -102.195170 55 2875ft 0kts
30-Jul-20 07:27 31.941865 -102.200279 289 2912ft 109kts
30-Jul-20 07:28 31.953671 -102.253379 277 5222ft 191kts
30-Jul-20 07:29 31.964666 -102.317676 284 8232ft 207kts
30-Jul-20 07:30 31.994708 -102.346973 351 10917ft 202kts
30-Jul-20 07:31 32.027264 -102.310939 82 14354ft 200kts
30-Jul-20 07:32 32.034145 -102.297843 27 14398ft 240kts
30-Jul-20 07:33 32.089600 -102.291074 16 17130ft 227kts
30-Jul-20 07:34 32.130193 -102.276582 19 18584ft 244kts
30-Jul-20 07:35 32.178484 -102.254200 29 18969ft 280kts
30-Jul-20 07:36 32.217156 -102.228321 31 19060ft 294kts
30-Jul-20 07:37 32.230829 -102.218987 32 19261ft 290kts
30-Jul-20 07:38 32.230829 -102.218987 32 19261ft 290kts
30-Jul-20 07:39 32.260092 -102.196220 39 18958ft 308kts
30-Jul-20 07:40 32.270460 -102.186336 41 18827ft 309kts
30-Jul-20 07:41 32.270460 -102.186336 41 18827ft 309kts
30-Jul-20 07:42 32.307829 -102.158196 13 18979ft 303kts
30-Jul-20 07:43 32.391608 -102.140835 8 18940ft 306kts
30-Jul-20 07:44 32.475544 -102.127059 9 19000ft 306kts
30-Jul-20 07:45 32.558977 -102.110960 11 19188ft 301kts
30-Jul-20 07:46 32.642186 -102.091312 9 18945ft 308kts
30-Jul-20 07:47 32.726134 -102.080076 4 18908ft 303kts
30-Jul-20 07:48 32.809259 -102.072913 9 19078ft 297kts
30-Jul-20 07:49 32.892687 -102.065032 4 19010ft 300kts
30-Jul-20 07:50 32.976548 -102.060730 5 19052ft 302kts
30-Jul-20 07:51 33.060517 -102.047170 11 18718ft 301kts
30-Jul-20 07:52 33.140130 -102.029561 14 14605ft 302kts
30-Jul-20 07:53 33.223322 -102.013098 13 9526ft 307kts
30-Jul-20 07:54 33.297704 -102.004550 10 8095ft 245kts
30-Jul-20 07:55 33.362926 -101.986418 20 8105ft 234kts
30-Jul-20 07:56 33.419883 -101.973361 12 8116ft 233kts
30-Jul-20 07:57 33.484776 -101.960549 13 8041ft 236kts
30-Jul-20 07:58 33.548667 -101.946894 11 8143ft 236kts
30-Jul-20 07:59 33.604615 -101.936481 11 7537ft 235kts
30-Jul-20 08:00 33.657921 -101.923709 17 5698ft 230kts
30-Jul-20 08:01 33.698992 -101.906710 61 5078ft 198kts
30-Jul-20 08:02 33.687423 -101.849351 122 5211ft 175kts
30-Jul-20 08:03 33.681437 -101.831518 114 5062ft 180kts
30-Jul-20 08:04 33.679681 -101.826503 116 5076ft 177kts
30-Jul-20 08:05 33.659155 -101.773734 114 4998ft 176kts
30-Jul-20 08:06 33.644197 -101.720266 116 5024ft 173kts
30-Jul-20 08:07 33.640754 -101.668036 30 4986ft 181kts
30-Jul-20 08:08 33.630803 -101.648495 245 5148ft 165kts
30-Jul-20 08:09 33.638329 -101.691534 284 5125ft 134kts
30-Jul-20 08:10 33.643514 -101.719522 277 4538ft 126kts
30-Jul-20 08:11 33.653545 -101.760067 284 3649ft 132kts
30-Jul-20 08:12 33.657995 -101.775650 285 3651ft 132kts
30-Jul-20 08:13 33.662241 -101.807755 271 3251ft 70kts
30-Jul-20 08:14 33.662241 -101.821767 264 3256ft 25kts
30-Jul-20 08:15 33.660305 -101.824313 269 3252ft 12kts
30-Jul-20 08:16 33.660285 -101.825631 268 3252ft 12kts
30-Jul-20 08:17 33.660285 -101.825631 268 3252ft 12kts
30-Jul-20 08:18 33.660285 -101.825631 268 3252ft 12kts
30-Jul-20 08:19 33.660285 -101.825631 268 3252ft 12kts
30-Jul-20 08:20 33.660285 -101.825631 268 3252ft 12kts
30-Jul-20 08:21 33.660285 -101.825631 268 3252ft 12kts
30-Jul-20 08:22 33.660285 -101.825631 268 3252ft 12kts
30-Jul-20 08:23 33.660285 -101.825631 268 3252ft 12kts
30-Jul-20 08:25 33.660285 -101.825631 268 3252ft 12kts
30-Jul-20 08:26 33.660285 -101.825631 268 3252ft 12kts
30-Jul-20 08:27 33.660285 -101.825631 268 3252ft 12kts
30-Jul-20 08:28 33.660285 -101.825631 268 3252ft 12kts
30-Jul-20 08:29 33.660285 -101.825631 268 3252ft 12kts
30-Jul-20 08:30 33.660285 -101.825631 268 3252ft 12kts

Navigation Log

Ident Type
Flight plan parsing failed, navigation log unavailable